Airfield :
LOGIN :

Register | Disclaimer

   EN    FR    IT 

 










Legend :    VFR   Marginal VFR   IFR   Intensive IFR   Very Intensive IFR
Visi :
Ceiling :
>= 8 km
>= 3000ft
5 to 8 km
1000 to 3000 ft
1500m to 5 km
500 to 1000 ft
800 to 1500m
200 to 500 ft
< 800m
< 200 ft
Symbols :   Thunderstorms  Fog  Heavy snow  Heavy precipitations  Wind > 20 kt
SIGMETs :     Misc.  Thunderstorms  Icing  Turbulence  Mountain Waves  Volcanic Ashes






- Airport Elevation : 257 ft
- IATA code : MAN


EGCC - Manchester

CURRENT METAR :
  • 172220Z AUTO 09002KT 1300 R23R/1400D BR NCD M00/M00 Q1038 TEMPO 0300 FZFG

EXPIRED METARs :
  • 172150Z AUTO 11001KT 0300 R23R/P1500N FZFG NCD M00/M00 Q1038 NOSIG
  • 172120Z AUTO 13002KT 0450 R23R/0500D FZFG NCD M00/M00 Q1038 NOSIG
  • 172050Z AUTO 13003KT 1900 R23R/1200U BR NCD M00/M00 Q1038 TEMPO 0300 FZFG VV///
  • 172020Z AUTO 10003KT 1200 R23R/1000U BR NCD 01/01 Q1038
  • 171950Z AUTO 10003KT 1500 R23R/1300U BR NCD M00/M00 Q1038 TEMPO 0300 FZFG VV///

TAF AMD TAF EGCC
Valid from the 17 at 21:00 until the 19 at 00:00 UTC


172057Z 1721/1824 13002KT 3000 BR FEW040
TEMPO 1721/1809 0300 FG FZFG VV///
BECMG 1809/1812 9999 NSW SCT020
PROB30
TEMPO 1817/1824 8000 BKN014
ATIS : +44 161 499 2324



MET'MAP, your aeronautical weather chart ! - Copyright ORBIFLY December 2007 - Disclaimer

ORBIFLY MET'MAP TEAM :

Programming & Development : Alexandra Zaïnal
Concept & original design : Baudouin d'Aumeries
Assistance for programming : Marc-Olivier Méhu
Technical & hardware support : Manuel Goepfert

Contact : metmap@orbifly.com




SOURCES & CREDITS :

   NOAA